Time;durP1;ratioP1;P1;durP2;ratioP2;P2;SDS_P1;SDS_P2;PMS_P1;PMS_P2;Temp;Humidity;BMP_temperature;BMP_pressure;BME280_temperature;BME280_humidity;BME280_pressure;Samples;Min_cycle;Max_cycle;Signal;HPM_P1;HPM_P2
2022/03/31 00:00:18;;;;;;;7.90;2.30;;;3.00;99.90;;;;;;5072498;28;20595;-68
2022/03/31 00:02:44;;;;;;;4.88;1.80;;;3.00;99.90;;;;;;5070470;28;20692;-70
2022/03/31 00:05:10;;;;;;;4.37;1.70;;;3.00;99.90;;;;;;5087273;28;20039;-68
2022/03/31 00:07:57;;;;;;;4.53;2.20;;;3.00;99.90;;;;;;5086208;28;20055;-68
2022/03/31 00:10:27;;;;;;;6.47;1.83;;;3.00;99.90;;;;;;5069785;28;20042;-68
2022/03/31 00:12:54;;;;;;;3.78;1.95;;;3.00;99.90;;;;;;5086383;28;20081;-68
2022/03/31 00:15:22;;;;;;;7.23;2.03;;;3.00;99.90;;;;;;5069841;28;20047;-68
2022/03/31 00:17:49;;;;;;;6.80;2.10;;;3.10;99.90;;;;;;5083311;28;20586;-68
2022/03/31 00:20:15;;;;;;;9.77;2.47;;;3.10;99.90;;;;;;5065564;28;20509;-69
2022/03/31 00:22:41;;;;;;;6.17;1.70;;;3.10;99.90;;;;;;5084061;28;20043;-68
2022/03/31 00:25:08;;;;;;;6.03;2.60;;;3.10;99.90;;;;;;5068951;28;20047;-68
2022/03/31 00:27:39;;;;;;;7.40;1.90;;;3.10;99.90;;;;;;5084872;28;20202;-69
2022/03/31 00:30:06;;;;;;;8.00;2.30;;;3.20;99.90;;;;;;5085350;28;20093;-68
2022/03/31 00:32:33;;;;;;;6.60;2.07;;;3.20;99.90;;;;;;5085341;28;20060;-68
2022/03/31 00:34:59;;;;;;;7.73;1.87;;;3.20;99.90;;;;;;5084757;28;20036;-69
2022/03/31 00:37:27;;;;;;;7.53;1.77;;;3.20;99.90;;;;;;5085957;28;20058;-67
2022/03/31 00:39:54;;;;;;;8.10;2.43;;;3.20;99.90;;;;;;5066432;28;20052;-67
2022/03/31 00:42:21;;;;;;;8.03;2.10;;;3.20;99.90;;;;;;5065436;28;20031;-68
2022/03/31 00:44:47;;;;;;;7.27;2.20;;;3.10;99.90;;;;;;5080926;28;20162;-68
2022/03/31 00:47:12;;;;;;;5.27;2.00;;;3.10;99.90;;;;;;5050894;28;20459;-68
2022/03/31 00:49:39;;;;;;;4.87;1.70;;;3.10;99.90;;;;;;5067950;28;20176;-68
2022/03/31 00:52:05;;;;;;;6.43;2.00;;;3.20;99.90;;;;;;5064253;28;20222;-68
2022/03/31 00:54:32;;;;;;;5.30;2.30;;;3.20;99.90;;;;;;5083025;28;20040;-67
2022/03/31 00:57:00;;;;;;;4.90;1.90;;;3.10;99.90;;;;;;5083227;28;20047;-69
2022/03/31 00:59:27;;;;;;;6.03;2.30;;;3.20;99.90;;;;;;5085340;28;20043;-69
2022/03/31 01:01:53;;;;;;;6.13;2.13;;;3.10;99.90;;;;;;5085213;28;20232;-67
2022/03/31 01:04:19;;;;;;;5.63;2.20;;;3.10;99.90;;;;;;5085170;28;20036;-68
2022/03/31 01:06:45;;;;;;;6.87;2.17;;;3.20;99.90;;;;;;5085506;28;20555;-67
2022/03/31 01:09:14;;;;;;;5.27;1.80;;;3.20;99.90;;;;;;5084899;28;20051;-68
2022/03/31 01:11:40;;;;;;;5.10;1.73;;;3.20;99.90;;;;;;5068311;28;20047;-69
2022/03/31 01:14:07;;;;;;;4.27;1.70;;;3.20;99.90;;;;;;5081289;28;20054;-66
2022/03/31 01:16:33;;;;;;;5.20;1.90;;;3.10;99.90;;;;;;5067607;28;20124;-69
2022/03/31 01:19:07;;;;;;;4.57;2.20;;;3.10;99.90;;;;;;5100608;28;20043;-67
2022/03/31 01:21:42;;;;;;;5.17;2.03;;;3.10;99.90;;;;;;5085074;28;20505;-67
2022/03/31 01:24:10;;;;;;;4.80;1.83;;;3.10;99.90;;;;;;5066958;28;20067;-67
2022/03/31 01:26:38;;;;;;;4.27;1.80;;;3.10;99.90;;;;;;5083735;28;20647;-68
2022/03/31 01:29:04;;;;;;;5.17;1.83;;;3.10;99.90;;;;;;5084664;28;20579;-68
2022/03/31 01:31:30;;;;;;;4.70;1.97;;;3.10;99.90;;;;;;5079579;28;20056;-68
2022/03/31 01:33:57;;;;;;;3.07;1.63;;;3.10;99.90;;;;;;5064461;28;20047;-68
2022/03/31 01:36:26;;;;;;;5.23;2.13;;;3.10;99.90;;;;;;5064510;28;20122;-69
2022/03/31 01:38:56;;;;;;;4.47;2.00;;;3.10;99.90;;;;;;5063908;28;20055;-68
2022/03/31 01:41:22;;;;;;;5.93;2.07;;;3.20;99.90;;;;;;5081925;28;20107;-68
2022/03/31 01:43:48;;;;;;;4.23;1.97;;;3.10;99.90;;;;;;5064285;28;20043;-69
2022/03/31 01:46:14;;;;;;;4.63;2.10;;;3.10;99.90;;;;;;5063858;28;20782;-69
2022/03/31 01:48:40;;;;;;;4.53;2.13;;;3.20;99.90;;;;;;5064303;28;20071;-70
2022/03/31 01:51:05;;;;;;;5.83;2.10;;;3.10;99.90;;;;;;5044496;28;20105;-70
2022/03/31 01:53:33;;;;;;;3.77;1.90;;;3.10;99.90;;;;;;5063852;28;20447;-71
2022/03/31 01:55:59;;;;;;;5.73;2.37;;;3.20;99.90;;;;;;5079693;28;20127;-71
2022/03/31 01:58:24;;;;;;;5.87;2.37;;;3.10;99.90;;;;;;5060182;28;20122;-70
2022/03/31 02:00:50;;;;;;;4.80;2.20;;;3.10;99.90;;;;;;5079446;28;20056;-71
2022/03/31 02:03:17;;;;;;;4.63;2.30;;;3.20;99.90;;;;;;5064712;28;20079;-70
2022/03/31 02:05:43;;;;;;;5.53;2.40;;;3.10;99.90;;;;;;5065646;28;20109;-71
2022/03/31 02:08:09;;;;;;;6.10;2.20;;;3.00;99.90;;;;;;5065502;28;20044;-71
2022/03/31 02:10:35;;;;;;;6.13;2.07;;;3.10;99.90;;;;;;5065679;28;20040;-71
2022/03/31 02:13:01;;;;;;;6.43;2.50;;;3.10;99.90;;;;;;5081283;28;20048;-71
2022/03/31 02:15:29;;;;;;;8.00;2.60;;;3.10;99.90;;;;;;5065709;28;20765;-71
2022/03/31 02:17:59;;;;;;;6.70;2.57;;;3.00;99.90;;;;;;5065279;28;20292;-69
2022/03/31 02:20:28;;;;;;;7.95;3.28;;;3.00;99.90;;;;;;5065755;28;20410;-71
2022/03/31 02:22:54;;;;;;;7.43;3.63;;;3.00;99.90;;;;;;5066742;28;20162;-71
2022/03/31 02:25:20;;;;;;;7.77;3.57;;;3.00;99.90;;;;;;5080862;28;20079;-71
2022/03/31 02:27:51;;;;;;;7.97;4.00;;;2.90;99.90;;;;;;5065402;28;20132;-70
2022/03/31 02:30:17;;;;;;;7.90;3.90;;;2.90;99.90;;;;;;5064895;28;20495;-70
2022/03/31 02:32:43;;;;;;;7.67;4.10;;;2.90;99.90;;;;;;5064960;28;20090;-70
2022/03/31 02:35:09;;;;;;;7.40;4.67;;;2.90;99.90;;;;;;5081572;28;20902;-71
2022/03/31 02:37:35;;;;;;;9.03;4.30;;;2.90;99.90;;;;;;5084642;28;20684;-71
2022/03/31 02:40:01;;;;;;;8.20;4.53;;;2.90;99.90;;;;;;5080357;28;20051;-71
2022/03/31 02:42:27;;;;;;;7.43;4.67;;;2.90;99.90;;;;;;5086180;28;20117;-71
2022/03/31 02:44:52;;;;;;;6.97;4.73;;;2.80;99.90;;;;;;5069836;28;20048;-71
2022/03/31 02:47:18;;;;;;;8.73;5.57;;;2.90;99.90;;;;;;5085767;28;20087;-70
2022/03/31 02:49:44;;;;;;;9.47;5.50;;;2.80;99.90;;;;;;5086225;28;20878;-71
2022/03/31 02:52:10;;;;;;;10.03;6.47;;;2.90;99.90;;;;;;5049781;28;20510;-71
2022/03/31 02:57:20;;;;;;;11.43;7.33;;;2.90;99.90;;;;;;5067880;28;20084;-71
2022/03/31 02:59:45;;;;;;;10.87;6.00;;;2.90;99.90;;;;;;5068096;28;20076;-70
2022/03/31 03:02:12;;;;;;;9.00;6.73;;;2.80;99.90;;;;;;5066805;28;20490;-71
2022/03/31 03:04:38;;;;;;;11.80;6.90;;;2.90;99.90;;;;;;5068666;28;20159;-71
2022/03/31 03:07:05;;;;;;;11.13;7.50;;;2.90;99.90;;;;;;5085063;28;20048;-71
2022/03/31 03:09:31;;;;;;;10.00;7.63;;;2.80;99.90;;;;;;5068782;28;20047;-71
2022/03/31 03:11:57;;;;;;;12.87;8.43;;;2.90;99.90;;;;;;5069212;28;20048;-71
2022/03/31 03:14:23;;;;;;;11.63;9.17;;;2.90;99.90;;;;;;5068722;28;20105;-70
2022/03/31 03:16:48;;;;;;;11.13;9.53;;;2.80;99.90;;;;;;5085793;28;20139;-71
2022/03/31 03:19:14;;;;;;;16.40;11.03;;;2.80;99.90;;;;;;5069470;28;20689;-71
2022/03/31 03:21:40;;;;;;;11.00;9.60;;;2.80;99.90;;;;;;5036247;28;20505;-71
2022/03/31 03:24:06;;;;;;;13.30;10.20;;;2.80;99.90;;;;;;5052377;28;20040;-70
2022/03/31 03:26:32;;;;;;;14.20;11.07;;;2.80;99.90;;;;;;5067147;28;20124;-70
2022/03/31 03:28:58;;;;;;;14.47;11.07;;;2.80;99.90;;;;;;5085655;28;20051;-71
2022/03/31 03:31:24;;;;;;;13.60;11.80;;;2.80;99.90;;;;;;5085002;28;20090;-71
2022/03/31 03:33:50;;;;;;;19.03;12.70;;;2.90;99.90;;;;;;5068806;28;20500;-70
2022/03/31 03:36:18;;;;;;;16.23;13.93;;;2.90;99.90;;;;;;5085012;28;20368;-70
2022/03/31 03:38:45;;;;;;;19.87;16.73;;;2.90;99.90;;;;;;5052467;28;20078;-71
2022/03/31 03:41:13;;;;;;;20.10;18.10;;;2.90;99.90;;;;;;5084764;28;20076;-70
2022/03/31 03:43:40;;;;;;;20.93;18.83;;;3.00;99.90;;;;;;5068388;28;20064;-70
2022/03/31 03:46:06;;;;;;;22.67;20.47;;;2.90;99.90;;;;;;5085234;28;20513;-71
2022/03/31 03:48:32;;;;;;;23.03;20.83;;;2.90;99.90;;;;;;5084400;28;20048;-71
2022/03/31 03:50:59;;;;;;;23.20;21.07;;;2.90;99.90;;;;;;5083873;28;20047;-71
2022/03/31 03:53:25;;;;;;;23.73;21.43;;;2.90;99.90;;;;;;5083915;28;20082;-71
2022/03/31 03:55:51;;;;;;;24.13;21.77;;;2.90;99.90;;;;;;5064387;28;20079;-70
2022/03/31 03:58:18;;;;;;;22.57;20.37;;;2.90;99.90;;;;;;5063843;28;20459;-69
2022/03/31 04:00:43;;;;;;;21.70;19.60;;;2.90;99.90;;;;;;5074294;28;20087;-69
2022/03/31 04:03:09;;;;;;;22.60;20.40;;;2.90;99.90;;;;;;5050069;28;20087;-68
2022/03/31 04:05:35;;;;;;;22.10;19.97;;;2.90;99.90;;;;;;5083385;28;20070;-72
2022/03/31 04:08:01;;;;;;;21.37;19.37;;;2.90;99.90;;;;;;5067508;28;20432;-67
2022/03/31 04:10:27;;;;;;;22.30;20.23;;;2.90;99.90;;;;;;5067075;28;20101;-69
2022/03/31 04:12:53;;;;;;;19.73;17.97;;;2.90;99.90;;;;;;5083439;28;20403;-69
2022/03/31 04:15:18;;;;;;;22.93;20.83;;;2.90;99.90;;;;;;5082060;28;20120;-69
2022/03/31 04:17:44;;;;;;;19.23;17.53;;;3.00;99.90;;;;;;5064728;28;20510;-69
2022/03/31 04:20:11;;;;;;;18.80;17.00;;;2.90;99.90;;;;;;5081896;28;20390;-68
2022/03/31 04:22:37;;;;;;;23.10;20.90;;;2.90;99.90;;;;;;5082026;28;20374;-69
2022/03/31 04:25:08;;;;;;;18.50;16.80;;;2.90;99.90;;;;;;5082211;28;20488;-68
2022/03/31 04:27:35;;;;;;;20.98;18.92;;;2.90;99.90;;;;;;5064497;28;20044;-69
2022/03/31 04:30:03;;;;;;;21.63;19.53;;;2.90;99.90;;;;;;5082358;28;20586;-69
2022/03/31 04:32:29;;;;;;;19.80;18.00;;;2.90;99.90;;;;;;5077409;28;20048;-69
2022/03/31 04:34:55;;;;;;;20.70;18.80;;;2.90;99.90;;;;;;5083252;28;20097;-68
2022/03/31 04:37:21;;;;;;;19.63;17.77;;;2.90;99.90;;;;;;5048984;28;20494;-68
2022/03/31 04:39:47;;;;;;;21.43;19.53;;;2.90;99.90;;;;;;5066926;28;20101;-67
2022/03/31 04:42:13;;;;;;;20.60;18.60;;;2.90;99.90;;;;;;5066460;28;20078;-69
2022/03/31 04:44:38;;;;;;;20.13;18.13;;;2.90;99.90;;;;;;5082418;28;20475;-70
2022/03/31 04:47:06;;;;;;;20.27;18.37;;;2.80;99.90;;;;;;5082216;28;20671;-68
2022/03/31 04:49:32;;;;;;;20.07;18.17;;;2.80;99.90;;;;;;5081900;28;20051;-70
2022/03/31 04:51:59;;;;;;;20.10;18.13;;;2.80;99.90;;;;;;5082051;28;20048;-68
2022/03/31 04:54:25;;;;;;;20.90;18.93;;;2.70;99.90;;;;;;5065337;28;20032;-68
2022/03/31 04:56:51;;;;;;;21.10;19.20;;;2.70;99.90;;;;;;5081661;28;20036;-69
2022/03/31 04:59:17;;;;;;;20.47;18.63;;;2.70;99.90;;;;;;5063035;28;20379;-69
2022/03/31 05:01:43;;;;;;;20.23;18.37;;;2.70;99.90;;;;;;5045118;28;20048;-69
2022/03/31 05:04:10;;;;;;;19.47;17.70;;;2.70;99.90;;;;;;5079652;28;20790;-69
2022/03/31 05:06:36;;;;;;;19.63;17.83;;;2.60;99.90;;;;;;5056606;28;20036;-69
2022/03/31 05:09:02;;;;;;;19.43;17.63;;;2.60;99.90;;;;;;5067880;28;20539;-69
2022/03/31 05:11:28;;;;;;;18.43;16.73;;;2.60;99.90;;;;;;5057477;28;20051;-68
2022/03/31 05:13:54;;;;;;;18.87;17.17;;;2.60;99.90;;;;;;5075587;28;20052;-69
2022/03/31 05:16:19;;;;;;;21.53;19.53;;;2.50;99.90;;;;;;5077270;28;20259;-69
2022/03/31 05:18:47;;;;;;;22.63;20.47;;;2.60;99.90;;;;;;5080003;28;20051;-69
2022/03/31 05:21:14;;;;;;;20.00;18.10;;;2.50;99.90;;;;;;5080895;28;20039;-69
2022/03/31 05:23:40;;;;;;;20.07;18.27;;;2.50;99.90;;;;;;5061402;28;20036;-69
2022/03/31 05:26:05;;;;;;;19.77;17.97;;;2.50;99.90;;;;;;5080338;28;20051;-68
2022/03/31 05:28:31;;;;;;;19.37;17.67;;;2.60;99.90;;;;;;5064628;28;20630;-69
2022/03/31 05:30:57;;;;;;;20.40;18.50;;;2.60;99.90;;;;;;5080601;28;20518;-69
2022/03/31 05:33:23;;;;;;;21.47;19.57;;;2.50;99.90;;;;;;5058494;28;20545;-68
2022/03/31 05:35:48;;;;;;;20.57;18.77;;;2.50;99.90;;;;;;5057579;28;20058;-68
2022/03/31 05:38:15;;;;;;;22.23;20.23;;;2.50;99.90;;;;;;5051193;28;20040;-71
2022/03/31 05:40:41;;;;;;;24.13;21.93;;;2.50;99.90;;;;;;5052466;28;20429;-68
2022/03/31 05:43:07;;;;;;;24.27;22.17;;;2.50;99.90;;;;;;5055470;28;20071;-68
2022/03/31 05:45:33;;;;;;;26.53;23.93;;;2.50;99.90;;;;;;5044062;28;20044;-69
2022/03/31 05:47:58;;;;;;;25.73;23.33;;;2.50;99.90;;;;;;5079695;28;20521;-68
2022/03/31 05:50:24;;;;;;;26.37;23.97;;;2.50;99.90;;;;;;5079648;28;20113;-69
2022/03/31 05:52:50;;;;;;;25.70;23.40;;;2.60;99.90;;;;;;5070883;28;20087;-68
2022/03/31 05:55:17;;;;;;;25.57;23.27;;;2.50;99.90;;;;;;5076759;28;20069;-69
2022/03/31 05:57:44;;;;;;;29.17;26.47;;;2.50;99.90;;;;;;5063517;28;20117;-69
2022/03/31 06:00:15;;;;;;;27.63;25.13;;;2.50;99.90;;;;;;5082020;28;20434;-69
2022/03/31 06:02:40;;;;;;;25.50;23.30;;;2.60;99.90;;;;;;5079521;28;20052;-69
2022/03/31 06:05:07;;;;;;;26.97;24.57;;;2.60;99.90;;;;;;5063252;28;20525;-68
2022/03/31 06:07:33;;;;;;;25.40;23.20;;;2.60;99.90;;;;;;5063935;28;20044;-68
2022/03/31 06:09:59;;;;;;;27.20;24.73;;;2.70;99.90;;;;;;5080979;28;20052;-67
2022/03/31 06:12:25;;;;;;;27.83;25.33;;;2.70;99.90;;;;;;5080373;28;20036;-68
2022/03/31 06:14:51;;;;;;;28.83;26.33;;;2.70;99.90;;;;;;5079340;28;20043;-68
2022/03/31 06:17:17;;;;;;;29.20;26.70;;;2.70;99.90;;;;;;5062881;28;20933;-68
2022/03/31 06:19:43;;;;;;;31.37;28.37;;;2.80;99.90;;;;;;5076047;28;20044;-69
2022/03/31 06:22:09;;;;;;;26.00;23.70;;;2.70;99.90;;;;;;5080071;28;20042;-68
2022/03/31 06:24:35;;;;;;;26.13;23.83;;;2.70;99.90;;;;;;5063095;28;20059;-70
2022/03/31 06:27:02;;;;;;;25.87;23.57;;;2.70;99.90;;;;;;5077352;28;20070;-71
2022/03/31 06:29:29;;;;;;;24.33;22.23;;;2.70;99.90;;;;;;5045062;28;20123;-68
2022/03/31 06:31:59;;;;;;;25.60;23.30;;;2.80;99.90;;;;;;5075966;28;20090;-70
2022/03/31 06:34:25;;;;;;;25.50;23.30;;;2.80;99.90;;;;;;5080493;28;20039;-70
2022/03/31 06:36:54;;;;;;;24.73;22.63;;;2.80;99.90;;;;;;5048822;28;20627;-70
2022/03/31 06:39:20;;;;;;;24.57;22.43;;;2.80;99.90;;;;;;5077168;28;20044;-69
2022/03/31 06:41:46;;;;;;;24.33;22.30;;;2.80;99.90;;;;;;5078192;28;20600;-69
2022/03/31 06:44:13;;;;;;;23.30;21.30;;;2.90;99.90;;;;;;5047839;28;20058;-69
2022/03/31 06:46:40;;;;;;;24.77;22.57;;;2.90;99.90;;;;;;5080980;28;20050;-70
2022/03/31 06:49:06;;;;;;;25.37;23.27;;;2.90;99.90;;;;;;5077568;28;20051;-69
2022/03/31 06:51:32;;;;;;;26.60;24.23;;;2.90;99.90;;;;;;5062018;28;20046;-68
2022/03/31 06:53:59;;;;;;;24.23;22.13;;;3.00;99.90;;;;;;5096641;28;20044;-68
2022/03/31 06:56:29;;;;;;;26.20;23.93;;;2.90;99.90;;;;;;5047373;28;20082;-68
2022/03/31 06:58:56;;;;;;;22.80;20.90;;;3.00;99.90;;;;;;5064726;28;20047;-68
2022/03/31 07:01:22;;;;;;;22.70;20.80;;;3.00;99.90;;;;;;5066869;28;20147;-68
2022/03/31 07:03:49;;;;;;;18.93;17.40;;;3.00;99.90;;;;;;5082682;28;20039;-68
2022/03/31 07:06:15;;;;;;;19.83;18.20;;;3.00;99.90;;;;;;5075721;28;20151;-69
2022/03/31 07:08:41;;;;;;;20.80;19.00;;;3.10;99.90;;;;;;5083059;28;20669;-68
2022/03/31 07:11:08;;;;;;;18.13;16.63;;;3.10;99.90;;;;;;5063894;28;20051;-68
2022/03/31 07:13:34;;;;;;;18.23;16.73;;;3.10;99.90;;;;;;5096624;28;20044;-68
2022/03/31 07:15:59;;;;;;;19.90;18.30;;;3.10;99.90;;;;;;5061358;28;20494;-68
2022/03/31 07:18:26;;;;;;;19.77;18.10;;;3.00;99.90;;;;;;5080329;28;20630;-68
2022/03/31 07:20:52;;;;;;;19.37;17.77;;;3.00;99.90;;;;;;5081191;28;20041;-68
2022/03/31 07:23:19;;;;;;;21.90;20.00;;;3.00;99.90;;;;;;5066433;28;20041;-70
2022/03/31 07:25:45;;;;;;;22.70;20.77;;;3.10;99.90;;;;;;5086970;28;20052;-66
2022/03/31 07:28:11;;;;;;;23.70;21.63;;;3.00;99.90;;;;;;5083747;28;20490;-69
2022/03/31 07:30:37;;;;;;;23.90;21.77;;;3.10;99.90;;;;;;5081222;28;20131;-69
2022/03/31 07:33:04;;;;;;;24.57;22.47;;;3.10;99.90;;;;;;5098914;28;20487;-70
2022/03/31 07:35:37;;;;;;;26.57;24.17;;;3.10;99.90;;;;;;5083346;28;20054;-69
2022/03/31 07:38:04;;;;;;;26.77;24.40;;;3.10;99.90;;;;;;5083279;28;20044;-68
2022/03/31 07:40:31;;;;;;;25.70;23.47;;;3.10;99.90;;;;;;5065663;28;20123;-68
2022/03/31 07:42:57;;;;;;;26.23;23.93;;;3.10;99.90;;;;;;5064967;28;20052;-68
2022/03/31 07:45:24;;;;;;;26.20;23.90;;;3.10;99.90;;;;;;5062223;28;20127;-69
2022/03/31 07:47:50;;;;;;;26.50;24.10;;;3.10;99.90;;;;;;5077876;28;20486;-69
2022/03/31 07:50:17;;;;;;;26.80;24.50;;;3.10;99.90;;;;;;5075366;28;20139;-68
2022/03/31 07:52:44;;;;;;;26.13;23.93;;;3.10;99.90;;;;;;5079331;28;20138;-68
2022/03/31 07:55:12;;;;;;;27.83;25.43;;;3.10;99.90;;;;;;5076180;28;20124;-68
2022/03/31 07:57:38;;;;;;;26.67;24.27;;;3.10;99.90;;;;;;5059575;28;20050;-68
2022/03/31 08:00:09;;;;;;;26.53;24.13;;;3.10;99.90;;;;;;5080445;28;20495;-68
2022/03/31 08:02:34;;;;;;;26.17;23.88;;;3.10;99.90;;;;;;5081876;28;20048;-68
2022/03/31 08:05:00;;;;;;;25.73;23.60;;;3.10;99.90;;;;;;5079516;28;20055;-68
2022/03/31 08:07:26;;;;;;;25.53;23.33;;;3.10;99.90;;;;;;5078326;28;20725;-69
2022/03/31 08:09:52;;;;;;;27.03;24.73;;;3.00;99.90;;;;;;5062284;28;20510;-69
2022/03/31 08:12:18;;;;;;;27.67;25.37;;;3.00;99.90;;;;;;5062182;28;20040;-68
2022/03/31 08:14:44;;;;;;;24.80;22.67;;;3.00;99.90;;;;;;5075146;28;20147;-69
2022/03/31 08:17:09;;;;;;;23.80;21.80;;;3.00;99.90;;;;;;5075872;28;20047;-69
2022/03/31 08:19:35;;;;;;;24.67;22.60;;;3.00;99.90;;;;;;5078819;28;20240;-69
2022/03/31 08:22:02;;;;;;;24.50;22.40;;;3.00;99.90;;;;;;5078049;28;20044;-68
2022/03/31 08:24:30;;;;;;;26.17;23.93;;;3.00;99.90;;;;;;5082165;28;20048;-68
2022/03/31 08:26:58;;;;;;;24.47;22.27;;;3.00;99.90;;;;;;5048644;28;20133;-69
2022/03/31 08:29:27;;;;;;;24.73;22.63;;;2.90;99.90;;;;;;5074506;28;20040;-68
2022/03/31 08:31:54;;;;;;;23.73;21.73;;;2.90;99.90;;;;;;5062290;28;20101;-68
2022/03/31 08:34:22;;;;;;;22.13;20.23;;;2.90;99.90;;;;;;5083025;28;20493;-68
2022/03/31 08:36:47;;;;;;;22.23;20.40;;;2.90;99.90;;;;;;5079793;28;20418;-69
2022/03/31 08:39:13;;;;;;;21.13;19.37;;;2.90;99.90;;;;;;5060525;28;20050;-68
2022/03/31 08:41:39;;;;;;;22.63;20.67;;;2.90;99.90;;;;;;5084257;28;20039;-68
2022/03/31 08:44:06;;;;;;;24.90;22.73;;;2.90;99.90;;;;;;5068054;28;20474;-69
2022/03/31 08:46:34;;;;;;;22.37;20.37;;;2.90;99.90;;;;;;5068646;28;20524;-68
2022/03/31 08:49:00;;;;;;;22.40;20.50;;;3.00;99.90;;;;;;5069085;28;20040;-68
2022/03/31 08:51:26;;;;;;;22.00;20.10;;;3.00;99.90;;;;;;5069052;28;20040;-67
2022/03/31 08:53:53;;;;;;;20.33;18.63;;;3.00;99.90;;;;;;5084532;28;20607;-68
2022/03/31 08:56:19;;;;;;;17.10;15.67;;;3.00;99.90;;;;;;5081195;28;20530;-68
2022/03/31 08:58:46;;;;;;;16.57;15.17;;;3.00;99.90;;;;;;5066900;28;20410;-70
2022/03/31 09:01:16;;;;;;;17.90;16.13;;;3.00;99.90;;;;;;5080360;28;20047;-69
2022/03/31 09:03:42;;;;;;;13.40;12.30;;;2.90;99.90;;;;;;5084766;28;20328;-70
2022/03/31 09:06:19;;;;;;;14.77;13.37;;;2.90;99.90;;;;;;5085145;28;20051;-69
2022/03/31 09:08:54;;;;;;;16.60;15.10;;;2.90;99.90;;;;;;5084515;28;20155;-68
2022/03/31 09:11:28;;;;;;;14.00;12.80;;;2.90;99.90;;;;;;5084483;28;20043;-68
2022/03/31 09:13:56;;;;;;;12.77;11.67;;;2.80;99.90;;;;;;5085012;28;20040;-68
2022/03/31 09:16:33;;;;;;;11.37;10.37;;;2.80;99.90;;;;;;5084645;28;20123;-68
2022/03/31 09:19:05;;;;;;;11.00;10.10;;;2.80;99.90;;;;;;5085337;28;20386;-68
2022/03/31 09:21:31;;;;;;;11.47;10.47;;;2.80;99.90;;;;;;5082851;28;20406;-68
2022/03/31 09:23:58;;;;;;;11.87;10.77;;;2.70;99.90;;;;;;5103006;28;20043;-69
2022/03/31 09:26:27;;;;;;;12.03;10.93;;;2.60;99.90;;;;;;5065143;28;20394;-69
2022/03/31 09:28:56;;;;;;;11.53;10.43;;;2.50;99.90;;;;;;5081308;28;20051;-70
2022/03/31 09:31:24;;;;;;;11.73;10.70;;;2.50;99.90;;;;;;5080743;28;20122;-68
2022/03/31 09:33:58;;;;;;;11.50;10.50;;;2.50;99.90;;;;;;5081716;28;20044;-70
2022/03/31 09:36:25;;;;;;;11.53;10.40;;;2.40;99.90;;;;;;5098879;28;20039;-69
2022/03/31 09:38:54;;;;;;;10.93;9.93;;;2.40;99.90;;;;;;5062837;28;20065;-68
2022/03/31 09:41:23;;;;;;;11.63;10.57;;;2.40;99.90;;;;;;5067317;28;20047;-70
2022/03/31 09:43:51;;;;;;;12.10;11.00;;;2.30;99.90;;;;;;5084155;28;20040;-69
2022/03/31 09:46:40;;;;;;;11.83;10.73;;;2.30;99.90;;;;;;5083465;28;20123;-70
2022/03/31 09:49:18;;;;;;;12.80;11.70;;;2.20;99.90;;;;;;5083582;28;20047;-69
2022/03/31 09:51:57;;;;;;;12.33;11.23;;;2.20;99.90;;;;;;5082767;28;20043;-70
2022/03/31 09:54:26;;;;;;;13.23;11.93;;;2.20;99.90;;;;;;5063246;28;20078;-68
2022/03/31 09:57:03;;;;;;;12.67;11.47;;;2.20;99.90;;;;;;5064048;28;20039;-69
2022/03/31 09:59:31;;;;;;;12.57;11.37;;;2.20;99.90;;;;;;5077071;28;20051;-70
2022/03/31 10:01:58;;;;;;;14.53;13.20;;;2.10;99.90;;;;;;5077022;28;20464;-72
2022/03/31 10:04:24;;;;;;;12.63;11.53;;;2.20;99.90;;;;;;5080102;28;20043;-69
2022/03/31 10:06:51;;;;;;;13.97;12.67;;;2.20;99.90;;;;;;5082102;28;20347;-70
2022/03/31 10:09:17;;;;;;;13.50;12.30;;;2.20;99.90;;;;;;5049960;28;20578;-70
2022/03/31 10:11:50;;;;;;;15.33;13.93;;;2.20;99.90;;;;;;5063923;28;20044;-69
2022/03/31 10:14:28;;;;;;;15.40;14.00;;;2.20;99.90;;;;;;5111979;27;20047;-69
2022/03/31 10:17:16;;;;;;;16.20;14.67;;;2.20;99.90;;;;;;5082016;28;20106;-69
2022/03/31 10:19:46;;;;;;;16.07;14.60;;;2.20;99.90;;;;;;5082767;28;20043;-69
2022/03/31 10:25:04;;;;;;;16.07;14.57;;;2.20;99.90;;;;;;5102229;28;20047;-69
2022/03/31 10:27:40;;;;;;;16.07;14.57;;;2.20;99.90;;;;;;5118428;28;20177;-70
2022/03/31 10:30:28;;;;;;;17.50;15.80;;;2.20;99.90;;;;;;5068459;28;20052;-69
2022/03/31 10:32:56;;;;;;;16.57;15.00;;;2.10;99.90;;;;;;5067173;28;20051;-70
2022/03/31 10:35:32;;;;;;;17.07;15.40;;;2.10;99.90;;;;;;5078158;28;20456;-69
2022/03/31 10:38:10;;;;;;;17.07;15.43;;;2.10;99.90;;;;;;5073256;28;20086;-71
2022/03/31 10:40:38;;;;;;;15.30;13.90;;;2.20;99.90;;;;;;5104271;28;20048;-69
2022/03/31 10:43:11;;;;;;;14.43;13.03;;;2.20;99.90;;;;;;5077149;28;20206;-70
2022/03/31 10:45:44;;;;;;;14.97;13.50;;;2.10;99.90;;;;;;5083948;28;20058;-69
2022/03/31 10:48:20;;;;;;;14.57;13.17;;;2.20;99.90;;;;;;5118723;27;20111;-69
2022/03/31 10:51:03;;;;;;;14.17;12.77;;;2.10;99.90;;;;;;5100654;28;20070;-69
2022/03/31 10:53:30;;;;;;;13.67;12.37;;;2.10;99.90;;;;;;5067351;28;20432;-69
2022/03/31 10:55:57;;;;;;;14.67;13.27;;;2.10;99.90;;;;;;5059777;28;20070;-69
2022/03/31 10:58:31;;;;;;;16.07;14.57;;;2.10;99.90;;;;;;5071307;28;20184;-68
2022/03/31 11:01:00;;;;;;;15.00;13.60;;;2.10;99.90;;;;;;5101582;28;20062;-69
2022/03/31 11:03:26;;;;;;;15.40;13.90;;;2.00;99.90;;;;;;5105299;28;20066;-70
2022/03/31 11:05:56;;;;;;;14.83;13.43;;;2.00;99.90;;;;;;5088663;28;20555;-68
2022/03/31 11:08:22;;;;;;;15.48;14.02;;;1.90;99.90;;;;;;5066960;28;20055;-71
2022/03/31 11:10:52;;;;;;;15.10;13.67;;;2.00;99.90;;;;;;5086085;28;20083;-68
2022/03/31 11:13:20;;;;;;;14.73;13.40;;;1.90;99.90;;;;;;5084805;28;20159;-69
2022/03/31 11:15:55;;;;;;;14.50;13.20;;;1.90;99.90;;;;;;5084230;28;20229;-68
2022/03/31 11:18:22;;;;;;;13.37;12.17;;;1.90;99.90;;;;;;5051221;28;20048;-69
2022/03/31 11:20:59;;;;;;;15.70;14.23;;;1.80;99.90;;;;;;5051081;28;20047;-70
2022/03/31 11:23:29;;;;;;;15.47;13.97;;;1.80;99.90;;;;;;5088315;28;20048;-72
2022/03/31 11:25:59;;;;;;;16.03;14.53;;;1.80;99.90;;;;;;5070980;28;20074;-70
2022/03/31 11:28:29;;;;;;;16.87;15.27;;;1.70;99.90;;;;;;5105573;28;20497;-71
2022/03/31 11:30:55;;;;;;;17.98;16.20;;;1.70;99.90;;;;;;5123185;27;20537;-73
2022/03/31 11:33:22;;;;;;;18.83;17.03;;;1.70;99.90;;;;;;5078861;28;20452;-72
2022/03/31 11:35:53;;;;;;;18.20;16.27;;;1.70;99.90;;;;;;5058091;28;20040;-72
2022/03/31 11:38:19;;;;;;;18.67;16.77;;;1.60;99.90;;;;;;5076193;28;20055;-70
2022/03/31 11:40:49;;;;;;;19.23;17.33;;;1.50;99.90;;;;;;5081804;28;20071;-71
2022/03/31 11:43:17;;;;;;;19.60;17.60;;;1.60;99.90;;;;;;5080045;28;20131;-71
2022/03/31 11:45:48;;;;;;;18.97;17.17;;;1.60;99.90;;;;;;5070932;28;20044;-72
2022/03/31 11:48:21;;;;;;;19.70;17.70;;;1.50;99.90;;;;;;5082290;28;20052;-70
2022/03/31 11:50:51;;;;;;;19.60;17.60;;;1.50;99.90;;;;;;5096521;28;20082;-70
2022/03/31 11:53:25;;;;;;;18.10;16.40;;;1.50;99.90;;;;;;5061289;28;20526;-68
2022/03/31 11:56:06;;;;;;;18.30;16.50;;;1.40;99.90;;;;;;5083787;28;20048;-68
2022/03/31 11:58:42;;;;;;;;;;;1.40;99.90;;;;;;5084674;28;20498;-70
2022/03/31 12:01:07;;;;;;;17.63;15.93;;;1.40;99.90;;;;;;5073006;28;20400;-69
2022/03/31 12:03:34;;;;;;;19.53;17.73;;;1.40;99.90;;;;;;5080019;28;20048;-68
2022/03/31 12:06:01;;;;;;;17.80;16.10;;;1.40;99.90;;;;;;5081773;28;20040;-68
2022/03/31 12:08:28;;;;;;;18.03;16.33;;;1.40;99.90;;;;;;5063094;28;20040;-71
2022/03/31 12:10:55;;;;;;;19.73;17.83;;;1.40;99.90;;;;;;5102071;28;20652;-70
2022/03/31 12:13:23;;;;;;;18.87;17.07;;;1.40;99.90;;;;;;5084278;28;20044;-70
2022/03/31 12:15:49;;;;;;;19.37;17.57;;;1.50;99.90;;;;;;5068134;28;20044;-69
2022/03/31 12:18:18;;;;;;;19.17;17.47;;;1.50;99.90;;;;;;5067199;28;20525;-70
2022/03/31 12:20:49;;;;;;;19.10;17.30;;;1.50;99.90;;;;;;5083380;28;20083;-70
2022/03/31 12:23:22;;;;;;;19.27;17.48;;;1.50;99.90;;;;;;5067382;28;20491;-69
2022/03/31 12:25:48;;;;;;;19.50;17.70;;;1.50;99.90;;;;;;5083730;28;20051;-70
2022/03/31 12:28:14;;;;;;;19.97;18.07;;;1.50;99.90;;;;;;5080542;28;20052;-69
2022/03/31 12:30:50;;;;;;;21.20;19.20;;;1.60;99.90;;;;;;5063434;28;20458;-68
2022/03/31 12:33:27;;;;;;;20.17;18.27;;;1.50;99.90;;;;;;5069288;28;20048;-68
2022/03/31 12:35:57;;;;;;;20.67;18.77;;;1.50;99.90;;;;;;5073472;28;20044;-69
2022/03/31 12:38:42;;;;;;;22.53;20.43;;;1.50;99.90;;;;;;5076309;28;20052;-69
2022/03/31 12:41:26;;;;;;;21.20;19.20;;;1.60;99.90;;;;;;5082447;28;20250;-69
2022/03/31 12:43:58;;;;;;;22.37;20.37;;;1.50;99.90;;;;;;5065343;28;20564;-67
2022/03/31 12:46:30;;;;;;;23.33;21.23;;;1.60;99.90;;;;;;5081165;28;20043;-68
2022/03/31 12:49:09;;;;;;;24.43;22.23;;;1.60;99.90;;;;;;5081690;28;20052;-69
2022/03/31 12:51:50;;;;;;;27.17;24.58;;;1.50;99.90;;;;;;5068237;28;20260;-69